首页
METAR-TAF:

METAR-TAF

机场 :

羅蘭加洛斯機場

圣但尼, 留尼汪岛

纬度: 20-53S, 经度: 055-31E, 海拔: 21米

当前天气观测

该预报发布于35分钟前的12:00 UTC
风速17节,风向
温度 26°C
湿度 58%
气压 1022 hPa
能见度10公里或以上
1500米以下无云,无积雨云

METAR: FMEE 181200Z AUTO 10017KT CAVOK 26/17 Q1022 NOSIG

时间: 16:35 (12:35 UTC)

预报

该预报发布于1小时和35分钟前的11:00 UTC
预报有效从18日的 12点(UTC)到 19日的 18点(UTC)
风速18节,风向东转东南
能见度10公里或以上
散云层高于2500英尺
短暂存在
从 19日的 06点(UTC)到 19日的 14点(UTC)
风速20节,风向东转东南,有时为30节阵风

TAF: FMEE 181100Z 1812/1918 12018KT 9999 SCT025 TEMPO 1906/1914 12020G30KT

超过4000个机场的气象观测和天气预报(METAR&TAF报告)。

可查询的气象台以黄色和红色小点在地图上表示。

将鼠标移到小点上方,可查看气象台名称。

然后点击查看天气观测和预报。

如需切换地图:点击带黑十字的绿色按钮放大地图;点击带横线的绿色按钮缩小地图;或者点击绿色箭头查看邻近地区的地图。


METAR-TAF: